Time;durP1;ratioP1;P1;durP2;ratioP2;P2;SDS_P1;SDS_P2;PMS_P1;PMS_P2;Temp;Humidity;BMP_temperature;BMP_pressure;BME280_temperature;BME280_humidity;BME280_pressure;Samples;Min_cycle;Max_cycle;Signal;HPM_P1;HPM_P2
2022/09/30 00:05:54;;;;;;;;;;;;;;;;;;;;;
2022/09/30 00:09:46;;;;;;;;;;;;;;;;;;;;;
2022/09/30 00:13:18;;;;;;;91.10;70.20;;;;;;;6.97;71.21;99740.16;107958;1282;23079;-79
2022/09/30 00:16:20;;;;;;;88.20;71.40;;;;;;;7.01;70.99;99743.48;108476;1272;22001;-78
2022/09/30 00:20:33;;;;;;;98.90;75.90;;;;;;;6.99;71.15;99735.95;108180;1278;22168;-78
2022/09/30 00:23:44;;;;;;;92.90;72.50;;;;;;;6.96;70.84;99733.27;107890;1277;21996;-79
2022/09/30 00:27:19;;;;;;;;;;;;;;;;;;;;;
2022/09/30 00:30:53;;;;;;;;;;;;;;;;;;;;;
2022/09/30 00:34:30;;;;;;;83.20;68.10;;;;;;;6.86;70.93;99733.95;107607;1286;22084;-79
2022/09/30 00:37:46;;;;;;;;;;;;;;;;;;;;;
2022/09/30 00:40:45;;;;;;;83.80;63.80;;;;;;;6.84;71.14;99733.14;108177;1281;22043;-78
2022/09/30 00:44:23;;;;;;;80.60;64.30;;;;;;;6.85;70.93;99739.01;108041;1276;21995;-79
2022/09/30 00:47:27;;;;;;;;;;;;;;;;;;;;;
2022/09/30 00:50:21;;;;;;;77.30;63.40;;;;;;;6.70;71.04;99745.52;107865;1282;24320;-78
2022/09/30 00:53:39;;;;;;;;;;;;;;;;;;;;;
2022/09/30 00:56:43;;;;;;;80.00;65.00;;;;;;;6.67;71.39;99754.78;108276;1280;22034;-80
2022/09/30 00:59:56;;;;;;;;;;;;;;;;;;;;;
2022/09/30 01:03:25;;;;;;;85.00;66.30;;;;;;;6.64;71.00;99769.24;107270;1290;22006;-78
2022/09/30 01:06:36;;;;;;;;;;;;;;;;;;;;;
2022/09/30 01:16:21;;;;;;;;;;;;;;;;;;;;;
2022/09/30 01:19:38;;;;;;;;;;;;;;;;;;;;;
2022/09/30 01:22:45;;;;;;;71.10;61.90;;;;;;;6.41;70.96;99779.94;107208;1290;22022;-78
2022/09/30 01:25:58;;;;;;;75.30;63.20;;;;;;;6.37;71.05;99784.40;107844;1284;23616;-78
2022/09/30 01:29:17;;;;;;;87.90;66.60;;;;;;;6.33;71.24;99787.63;107953;1278;23714;-78
2022/09/30 01:32:54;;;;;;;;;;;;;;;;;;;;;
2022/09/30 01:36:07;;;;;;;;;;;;;;;;;;;;;
2022/09/30 01:39:38;;;;;;;84.80;65.60;;;;;;;6.21;71.36;99801.27;108057;1276;22901;-78
2022/09/30 01:42:49;;;;;;;101.80;71.80;;;;;;;6.18;71.37;99798.77;108107;1276;23741;-78
2022/09/30 01:46:02;;;;;;;97.10;72.30;;;;;;;6.18;71.66;99798.76;108306;1271;22239;-77
2022/09/30 01:49:26;;;;;;;;;;;;;;;;;;;;;
2022/09/30 01:53:37;;;;;;;340.70;262.20;;;;;;;6.15;71.86;99797.98;108300;1278;22012;-78
2022/09/30 01:57:32;;;;;;;;;;;;;;;;;;;;;
2022/09/30 02:01:53;;;;;;;;;;;;;;;;;;;;;
2022/09/30 02:05:50;;;;;;;;;;;;;;;;;;;;;
2022/09/30 02:09:42;;;;;;;76.50;62.80;;;;;;;5.95;71.92;99817.52;107769;1283;23059;-78
2022/09/30 02:14:01;;;;;;;91.90;68.80;;;;;;;5.93;72.24;99814.13;107906;1281;22107;-78
2022/09/30 02:17:43;;;;;;;;;;;;;;;;;;;;;
2022/09/30 02:21:16;;;;;;;;;;;;;;;;;;;;;
2022/09/30 02:24:46;;;;;;;138.10;86.60;;;;;;;5.99;72.19;99816.92;107416;1287;22007;-79
2022/09/30 02:28:01;;;;;;;;;;;;;;;;;;;;;
2022/09/30 02:31:19;;;;;;;79.90;59.80;;;;;;;5.99;72.28;99809.13;107106;1287;22016;-79
2022/09/30 02:38:40;;;;;;;;;;;;;;;;;;;;;
2022/09/30 02:41:50;;;;;;;76.20;61.40;;;;;;;5.99;72.37;99816.91;106229;1297;23374;-77
2022/09/30 02:45:02;;;;;;;80.10;61.10;;;;;;;6.00;72.18;99814.48;105749;1303;22851;-77
2022/09/30 02:48:38;;;;;;;85.00;66.50;;;;;;;5.98;72.02;99816.25;106189;1303;23750;-77
2022/09/30 02:52:14;;;;;;;48.20;39.90;;;;;;;5.96;72.09;99818.55;105981;1303;22030;-78
2022/09/30 02:55:38;;;;;;;76.70;57.40;;;;;;;5.94;72.14;99819.78;106248;1300;22031;-79
2022/09/30 02:58:33;;;;;;;78.60;60.50;;;;;;;5.95;72.25;99816.67;106355;1299;22077;-79
2022/09/30 03:01:40;;;;;;;;;;;;;;;;;;;;;
2022/09/30 03:04:46;;;;;;;;;;;;;;;;;;;;;
2022/09/30 03:07:51;;;;;;;76.30;61.70;;;;;;;5.94;72.03;99813.22;105916;1296;23313;-77
2022/09/30 03:10:39;;;;;;;71.90;59.10;;;;;;;5.93;72.14;99812.39;107139;1281;22790;-78
2022/09/30 03:14:26;;;;;;;;;;;;;;;;;;;;;
2022/09/30 03:18:07;;;;;;;;;;;;;;;;;;;;;
2022/09/30 03:21:24;;;;;;;61.70;54.00;;;;;;;5.93;72.43;99831.71;108078;1272;22125;-78
2022/09/30 03:25:10;;;;;;;;;;;;;;;;;;;;;
2022/09/30 03:29:35;;;;;;;69.50;61.40;;;;;;;6.00;72.72;99826.89;108637;1270;21992;-78
2022/09/30 03:34:10;;;;;;;64.70;55.50;;;;;;;6.03;72.93;99834.59;108727;1272;21999;-79
2022/09/30 03:37:56;;;;;;;;;;;;;;;;;;;;;
2022/09/30 03:41:42;;;;;;;67.70;56.60;;;;;;;6.00;72.96;99842.78;108400;1270;22938;-79
2022/09/30 03:46:00;;;;;;;;;;;;;;;;;;;;;
2022/09/30 03:49:40;;;;;;;;;;;;;;;;;;;;;
2022/09/30 03:54:02;;;;;;;;;;;;;;;;;;;;;
2022/09/30 03:57:50;;;;;;;;;;;;;;;;;;;;;
2022/09/30 04:00:58;;;;;;;;;;;;;;;;;;;;;
2022/09/30 04:04:11;;;;;;;;;;;;;;;;;;;;;
2022/09/30 04:07:34;;;;;;;72.10;57.10;;;;;;;6.39;73.06;99856.41;107755;1283;22060;-79
2022/09/30 04:10:45;;;;;;;66.40;53.00;;;;;;;6.41;72.94;99851.33;108276;1277;22344;-80
2022/09/30 04:14:16;;;;;;;80.60;60.00;;;;;;;6.44;73.05;99849.86;107779;1284;23050;-79
2022/09/30 04:17:32;;;;;;;69.80;54.80;;;;;;;6.48;72.88;99853.71;107925;1278;22055;-79
2022/09/30 04:21:36;;;;;;;72.90;57.80;;;;;;;6.49;72.95;99857.17;108250;1281;23131;-78
2022/09/30 04:26:23;;;;;;;;;;;;;;;;;;;;;
2022/09/30 04:29:01;;;;;;;;;;;;;;;;;;;;;
2022/09/30 04:32:29;;;;;;;;;;;;;;;;;;;;;
2022/09/30 04:35:26;;;;;;;;;;;;;;;6.62;73.02;99836.86;108356;1275;24391;-77
2022/09/30 04:38:33;;;;;;;;;;;;;;;;;;;;;
2022/09/30 04:41:32;;;;;;;;;;;;;;;;;;;;;
2022/09/30 04:45:59;;;;;;;;;;;;;;;;;;;;;
2022/09/30 04:51:13;;;;;;;;;;;;;;;;;;;;;
2022/09/30 04:56:30;;;;;;;64.60;53.40;;;;;;;6.47;73.42;99875.21;107620;1285;21998;-79
2022/09/30 04:59:39;;;;;;;;;;;;;;;;;;;;;
2022/09/30 05:02:45;;;;;;;;;;;;;;;;;;;;;
2022/09/30 05:06:15;;;;;;;67.00;54.80;;;;;;;6.62;73.16;99888.58;107676;1285;22246;-78
2022/09/30 05:20:21;;;;;;;50.40;44.80;;;;;;;8.37;68.53;99884.36;108835;1270;548279;-78
2022/09/30 05:24:02;;;;;;;;;;;;;;;;;;;;;
2022/09/30 05:27:48;;;;;;;48.00;43.00;;;;;;;8.14;68.38;99901.25;111091;1250;22422;-78
2022/09/30 05:31:28;;;;;;;52.20;46.60;;;;;;;7.81;69.05;99905.48;110899;1249;23708;-78
2022/09/30 05:34:30;;;;;;;57.60;50.50;;;;;;;7.68;69.98;99908.16;111621;1242;22006;-79
2022/09/30 05:38:27;;;;;;;;;;;;;;;;;;;;;
2022/09/30 05:41:34;;;;;;;51.40;45.80;;;;;;;7.66;70.86;99913.10;112085;1237;21969;-77
2022/09/30 05:49:48;;;;;;;;;;;;;;;;;;;;;
2022/09/30 05:53:33;;;;;;;49.00;44.10;;;;;;;7.50;71.40;99914.64;110614;1252;22525;-76
2022/09/30 05:57:36;;;;;;;50.40;45.20;;;;;;;7.51;71.65;99926.05;110954;1250;21978;-77
2022/09/30 06:01:07;;;;;;;;;;;;;;;;;;;;;
2022/09/30 06:05:07;;;;;;;50.60;45.20;;;;;;;7.71;72.43;99934.05;110916;1248;22147;-76
2022/09/30 06:08:17;;;;;;;;;;;;;;;;;;;;;
2022/09/30 06:12:10;;;;;;;;;;;;;;;;;;;;;
2022/09/30 06:15:40;;;;;;;;;;;;;;;;;;;;;
2022/09/30 06:19:24;;;;;;;43.20;38.60;;;;;;;8.13;72.59;99953.27;110253;1254;22130;-77
2022/09/30 06:23:25;;;;;;;44.10;38.00;;;;;;;8.21;72.76;99955.92;110212;1257;23117;-77
2022/09/30 06:27:11;;;;;;;;;;;;;;;;;;;;;
2022/09/30 06:43:17;;;;;;;;;;;;;;;;;;;;;
2022/09/30 06:47:36;;;;;;;;;;;;;;;;;;;;;
2022/09/30 06:51:04;;;;;;;38.60;33.90;;;;;;;9.17;72.03;99984.45;111023;1248;22994;-79
2022/09/30 07:00:29;;;;;;;;;;;;;;;;;;;;;
2022/09/30 07:07:19;;;;;;;;;;;;;;;;;;;;;
2022/09/30 07:11:20;;;;;;;;;;;;;;;;;;;;;
2022/09/30 07:14:50;;;;;;;;;;;;;;;;;;;;;
2022/09/30 07:18:21;;;;;;;;;;;;;;;;;;;;;
2022/09/30 07:22:26;;;;;;;;;;;;;;;;;;;;;
2022/09/30 07:25:57;;;;;;;;;;;;;;;;;;;;;
2022/09/30 07:29:44;;;;;;;;;;;;;;;;;;;;;
2022/09/30 07:33:52;;;;;;;37.00;33.00;;;;;;;11.30;70.36;100015.23;109019;1267;22478;-77
2022/09/30 07:37:52;;;;;;;46.70;40.30;;;;;;;11.54;70.08;100020.92;108426;1275;23201;-83
2022/09/30 07:41:41;;;;;;;;;;;;;;;;;;;;;
2022/09/30 07:44:57;;;;;;;;;;;;;;;;;;;;;
2022/09/30 07:48:08;;;;;;;;;;;;;;;;;;;;;
2022/09/30 07:50:41;;;;;;;26.90;24.20;;;;;;;12.35;69.01;100018.73;108134;1285;22026;-82
2022/09/30 07:53:39;;;;;;;29.40;26.40;;;;;;;12.53;68.41;100014.91;108246;1282;23622;-82
2022/09/30 07:56:37;;;;;;;26.80;23.80;;;;;;;12.64;68.10;100016.95;108767;1273;21987;-82
2022/09/30 08:00:01;;;;;;;26.80;23.70;;;;;;;12.72;67.37;100021.77;108995;1266;23797;-81
2022/09/30 08:03:49;;;;;;;22.90;20.40;;;;;;;12.75;66.90;100022.83;109020;1270;22003;-82
2022/09/30 08:07:27;;;;;;;;;;;;;;;;;;;;;
2022/09/30 08:11:49;;;;;;;23.30;20.10;;;;;;;12.80;66.23;100026.58;108975;1270;23135;-81
2022/09/30 08:18:33;;;;;;;23.50;21.00;;;;;;;12.78;65.85;100042.41;108685;1276;21984;-81
2022/09/30 08:21:50;;;;;;;24.80;20.10;;;;;;;12.77;65.22;100047.89;108526;1276;23095;-82
2022/09/30 08:24:50;;;;;;;20.30;18.10;;;;;;;12.73;64.91;100043.70;108634;1276;24382;-81
2022/09/30 08:27:35;;;;;;;;;;;;;;;;;;;;;
2022/09/30 08:30:25;;;;;;;;;;;;;;;;;;;;;
2022/09/30 08:41:34;;;;;;;21.10;19.00;;;;;;;12.51;64.73;100051.98;108081;1283;23795;-81
2022/09/30 08:45:09;;;;;;;20.50;18.30;;;;;;;12.52;65.08;100050.91;108163;1282;22100;-81
2022/09/30 08:48:30;;;;;;;19.70;17.70;;;;;;;12.61;65.01;100055.88;108021;1286;22432;-81
2022/09/30 08:51:51;;;;;;;;;;;;;;;;;;;;;
2022/09/30 08:58:15;;;;;;;28.30;21.40;;;;;;;12.75;64.46;100062.30;108271;1283;22013;-82
2022/09/30 09:05:48;;;;;;;19.90;17.50;;;;;;;12.83;64.25;100068.66;107769;1286;22368;-81
2022/09/30 09:08:57;;;;;;;18.20;16.50;;;;;;;12.83;64.17;100069.71;107696;1286;22067;-82
2022/09/30 09:12:19;;;;;;;21.10;18.10;;;;;;;12.83;63.90;100072.52;107912;1286;22038;-81
2022/09/30 09:15:35;;;;;;;20.70;18.50;;;;;;;12.91;63.94;100076.35;108109;1283;22016;-82
2022/09/30 09:19:23;;;;;;;;;;;;;;;;;;;;;
2022/09/30 09:22:29;;;;;;;;;;;;;;;;;;;;;
2022/09/30 09:25:28;;;;;;;24.90;22.30;;;;;;;12.91;63.41;100074.77;109019;1269;22050;-83
2022/09/30 09:32:02;;;;;;;;;;;;;;;;;;;;;
2022/09/30 09:36:16;;;;;;;24.10;21.70;;;;;;;13.05;63.21;100076.45;109302;1269;22003;-83
2022/09/30 09:39:30;;;;;;;23.10;20.80;;;;;;;13.07;62.92;100080.01;108644;1277;22041;-83
2022/09/30 09:42:48;;;;;;;24.60;22.20;;;;;;;13.07;62.80;100081.24;108264;1283;22297;-83
2022/09/30 09:45:40;;;;;;;21.50;19.20;;;;;;;13.18;63.05;100080.81;104420;1286;4736837;-83
2022/09/30 09:48:14;;;;;;;21.90;19.80;;;;;;;13.25;62.68;100079.09;108178;1285;22019;-84
2022/09/30 09:51:15;;;;;;;18.10;16.20;;;;;;;13.27;62.18;100083.00;107560;1290;23030;-81
2022/09/30 09:54:04;;;;;;;18.70;16.20;;;;;;;13.30;62.13;100087.40;107789;1284;22814;-84
2022/09/30 09:56:38;;;;;;;24.40;22.10;;;;;;;13.32;61.52;100085.50;107939;1286;22020;-78
2022/09/30 09:59:21;;;;;;;20.30;18.50;;;;;;;13.30;61.04;100085.80;107765;1286;23040;-79
2022/09/30 10:02:31;;;;;;;17.10;15.30;;;;;;;13.28;61.15;100087.14;107734;1285;22160;-79
2022/09/30 10:05:10;;;;;;;20.50;15.90;;;;;;;13.21;60.54;100082.10;107557;1289;22013;-79
2022/09/30 10:08:17;;;;;;;18.70;16.90;;;;;;;13.17;60.94;100082.27;107809;1279;23098;-79
2022/09/30 10:10:54;;;;;;;22.00;18.10;;;;;;;13.20;60.93;100084.41;107978;1273;22191;-77
2022/09/30 10:18:36;;;;;;;19.20;17.20;;;;;;;13.33;60.99;100087.57;109450;1260;23664;-78
2022/09/30 10:21:24;;;;;;;16.80;14.60;;;;;;;13.43;60.98;100088.99;110065;1260;22213;-77
2022/09/30 10:23:54;;;;;;;21.20;17.00;;;;;;;13.55;60.80;100088.36;109927;1259;21969;-77
2022/09/30 10:26:26;;;;;;;35.30;24.70;;;;;;;13.64;60.63;100094.32;110239;1258;23849;-78
2022/09/30 10:29:04;;;;;;;18.00;16.40;;;;;;;13.73;60.34;100098.73;110276;1258;21981;-78
2022/09/30 10:31:42;;;;;;;19.30;17.40;;;;;;;13.80;60.07;100100.09;110101;1259;23773;-78
2022/09/30 10:34:27;;;;;;;18.00;15.70;;;;;;;13.84;59.78;100097.07;110666;1257;23789;-78
2022/09/30 10:37:00;;;;;;;15.70;13.80;;;;;;;13.86;59.37;100099.56;110202;1258;23040;-78
2022/09/30 10:39:33;;;;;;;18.40;15.80;;;;;;;13.82;58.81;100102.60;110007;1260;22040;-78
2022/09/30 10:42:22;;;;;;;15.30;12.60;;;;;;;13.80;58.84;100102.20;110368;1253;21966;-78
2022/09/30 10:45:09;;;;;;;13.10;11.90;;;;;;;13.73;58.30;100104.85;110652;1252;23092;-80
2022/09/30 10:47:46;;;;;;;15.00;13.00;;;;;;;13.68;58.37;100109.67;110747;1253;23068;-80
2022/09/30 10:50:21;;;;;;;18.60;16.60;;;;;;;13.67;58.45;100112.70;110759;1252;23131;-79
2022/09/30 10:53:12;;;;;;;15.30;13.60;;;;;;;13.71;58.48;100110.23;110524;1252;22877;-81
2022/09/30 10:55:44;;;;;;;16.70;15.10;;;;;;;13.67;58.27;100110.73;110572;1253;21962;-83
2022/09/30 10:58:25;;;;;;;14.40;12.90;;;;;;;13.71;58.52;100110.73;110933;1253;22935;-81
2022/09/30 11:01:35;;;;;;;14.90;12.90;;;;;;;13.84;58.87;100111.08;110738;1253;21961;-79
2022/09/30 11:04:14;;;;;;;14.40;13.00;;;;;;;13.96;58.83;100109.85;111075;1253;21962;-80
2022/09/30 11:06:46;;;;;;;14.50;13.10;;;;;;;14.09;58.52;100111.24;110918;1253;21938;-79
2022/09/30 11:09:39;;;;;;;19.30;13.70;;;;;;;14.14;58.05;100113.26;110995;1253;23043;-79
2022/09/30 11:12:31;;;;;;;15.40;13.80;;;;;;;14.17;57.98;100107.47;110747;1253;21963;-78
2022/09/30 11:15:02;;;;;;;;;;;;;;;14.27;58.11;100100.61;110385;1253;23560;-78
2022/09/30 11:17:45;;;;;;;14.60;13.10;;;;;;;14.29;58.15;100096.34;110538;1253;21954;-79
2022/09/30 11:20:31;;;;;;;19.30;14.00;;;;;;;14.36;57.69;100096.06;110460;1253;22033;-78
2022/09/30 11:23:10;;;;;;;16.70;13.10;;;;;;;14.43;57.53;100091.11;110654;1253;21974;-78
2022/09/30 11:25:56;;;;;;;15.30;13.70;;;;;;;14.52;57.39;100092.89;110724;1253;23709;-78
2022/09/30 11:28:51;;;;;;;14.40;11.40;;;;;;;14.61;57.42;100092.75;110719;1253;22023;-78
2022/09/30 11:31:41;;;;;;;13.40;12.00;;;;;;;14.64;56.58;100091.69;110654;1252;21973;-79
2022/09/30 11:34:35;;;;;;;13.20;11.80;;;;;;;14.63;56.36;100084.20;110923;1253;23846;-78
2022/09/30 11:37:26;;;;;;;15.80;12.30;;;;;;;14.58;56.05;100085.36;110651;1253;22948;-76
2022/09/30 11:40:22;;;;;;;15.10;12.80;;;;;;;14.58;55.93;100084.15;110630;1253;21971;-76
2022/09/30 11:43:06;;;;;;;13.00;11.80;;;;;;;14.60;56.02;100088.02;110569;1252;22906;-77
2022/09/30 11:45:52;;;;;;;19.20;16.90;;;;;;;14.69;55.94;100088.61;110978;1252;21972;-78
2022/09/30 11:49:00;;;;;;;12.80;11.40;;;;;;;14.69;55.39;100087.34;110635;1252;23606;-79
2022/09/30 11:52:03;;;;;;;12.70;11.40;;;;;;;14.67;55.33;100091.88;110950;1252;23391;-77
2022/09/30 11:54:59;;;;;;;11.10;10.00;;;;;;;14.60;54.58;100091.18;110591;1253;21980;-77
2022/09/30 11:57:50;;;;;;;11.90;10.50;;;;;;;14.44;54.43;100085.45;110664;1252;22706;-77
2022/09/30 12:00:20;;;;;;;14.70;12.30;;;;;;;14.37;54.74;100081.14;110777;1253;21963;-76
2022/09/30 12:03:00;;;;;;;12.60;11.40;;;;;;;14.35;54.87;100077.41;110652;1253;21961;-75
2022/09/30 12:05:44;;;;;;;14.40;11.00;;;;;;;14.39;55.20;100079.64;110682;1252;23590;-76
2022/09/30 12:08:34;;;;;;;15.10;11.90;;;;;;;14.48;55.42;100082.94;110475;1253;23073;-76
2022/09/30 12:11:44;;;;;;;13.80;12.30;;;;;;;14.54;55.26;100084.55;110672;1253;21963;-76
2022/09/30 12:14:34;;;;;;;16.60;11.00;;;;;;;14.57;55.02;100092.05;110637;1252;24273;-76
2022/09/30 12:17:17;;;;;;;12.80;11.40;;;;;;;14.61;55.05;100091.98;110630;1252;23603;-75
2022/09/30 12:19:54;;;;;;;13.10;11.30;;;;;;;14.70;55.03;100086.95;110573;1252;23164;-75
2022/09/30 12:22:40;;;;;;;14.50;10.40;;;;;;;14.77;55.05;100082.65;110619;1253;23031;-76
2022/09/30 12:25:21;;;;;;;11.90;10.70;;;;;;;14.88;55.18;100084.13;110671;1252;21974;-75
2022/09/30 12:30:15;;;;;;;14.40;12.90;;;;;;;15.00;54.80;100084.27;110617;1252;22600;-75
2022/09/30 12:31:30;;;;;;;23.70;21.30;;;;;;;15.08;54.55;100088.02;110543;1252;23048;-76
2022/09/30 12:34:39;;;;;;;14.40;11.50;;;;;;;15.07;54.20;100087.34;109971;1260;23056;-77
2022/09/30 12:37:48;;;;;;;13.80;11.20;;;;;;;14.97;53.77;100086.58;109922;1260;23616;-76
2022/09/30 12:40:57;;;;;;;13.50;12.10;;;;;;;14.95;53.93;100088.64;110159;1260;23671;-75
2022/09/30 12:44:06;;;;;;;13.40;11.30;;;;;;;14.94;53.75;100091.16;110166;1260;23757;-78
2022/09/30 12:47:37;;;;;;;14.50;12.50;;;;;;;14.93;53.80;100099.06;110114;1260;23599;-76
2022/09/30 12:50:08;;;;;;;15.00;12.20;;;;;;;14.95;54.03;100104.92;109693;1260;22932;-79
2022/09/30 12:52:43;;;;;;;14.50;12.70;;;;;;;14.98;53.87;100106.98;109658;1261;21980;-76
2022/09/30 12:55:27;;;;;;;14.20;11.20;;;;;;;15.03;54.10;100107.41;109694;1260;21989;-75
2022/09/30 12:58:02;;;;;;;11.50;10.30;;;;;;;15.08;54.01;100106.94;109783;1260;21988;-75
2022/09/30 13:00:37;;;;;;;15.90;11.50;;;;;;;15.10;53.65;100109.82;108899;1267;21979;-76
2022/09/30 13:03:20;;;;;;;13.00;11.60;;;;;;;15.09;53.50;100108.11;108779;1270;24293;-77
2022/09/30 13:05:58;;;;;;;13.30;11.10;;;;;;;15.08;53.28;100109.20;109001;1267;21993;-77
2022/09/30 13:08:44;;;;;;;12.10;10.40;;;;;;;15.07;53.28;100108.06;108737;1273;22000;-77
2022/09/30 13:11:35;;;;;;;12.80;11.40;;;;;;;15.06;53.30;100104.23;108984;1267;21999;-76
2022/09/30 13:14:43;;;;;;;13.30;11.90;;;;;;;15.04;53.19;100098.90;109183;1265;21994;-77
2022/09/30 13:17:16;;;;;;;14.80;12.20;;;;;;;14.97;53.24;100101.98;109249;1264;21987;-76
2022/09/30 13:21:08;;;;;;;13.20;12.00;;;;;;;14.92;53.55;100099.34;109281;1266;22091;-77
2022/09/30 13:23:55;;;;;;;13.20;12.00;;;;;;;14.90;53.84;100098.23;109225;1265;22635;-76
2022/09/30 13:26:28;;;;;;;12.30;10.90;;;;;;;14.90;53.87;100098.23;109280;1264;22019;-75
2022/09/30 13:29:16;;;;;;;12.00;9.80;;;;;;;14.90;53.94;100098.23;109221;1265;21991;-77
2022/09/30 13:31:48;;;;;;;12.90;10.20;;;;;;;14.83;53.71;100097.36;109459;1263;23386;-75
2022/09/30 13:34:51;;;;;;;11.90;10.70;;;;;;;14.83;53.94;100099.15;110026;1260;22032;-76
2022/09/30 13:37:36;;;;;;;11.40;10.30;;;;;;;14.79;53.91;100095.89;109380;1260;22025;-77
2022/09/30 13:40:20;;;;;;;11.80;10.30;;;;;;;14.77;54.31;100094.75;109692;1260;21992;-74
2022/09/30 13:43:49;;;;;;;13.10;11.80;;;;;;;14.82;54.57;100096.21;109685;1260;21969;-76
2022/09/30 13:46:42;;;;;;;12.10;10.90;;;;;;;14.85;54.55;100097.61;109871;1261;23050;-76
2022/09/30 13:49:46;;;;;;;12.40;10.90;;;;;;;14.83;54.48;100099.13;109994;1260;21972;-76
2022/09/30 13:52:29;;;;;;;10.80;9.20;;;;;;;14.78;54.56;100100.14;109606;1260;22003;-77
2022/09/30 13:55:20;;;;;;;25.70;23.10;;;;;;;14.74;54.50;100098.42;109746;1256;22035;-75
2022/09/30 13:58:48;;;;;;;13.40;11.50;;;;;;;14.70;54.62;100098.89;110021;1259;23055;-75
2022/09/30 14:02:16;;;;;;;13.20;11.20;;;;;;;14.72;54.88;100096.63;110229;1260;22999;-77
2022/09/30 14:05:22;;;;;;;11.10;9.50;;;;;;;14.76;54.91;100091.86;109953;1260;23759;-77
2022/09/30 14:08:51;;;;;;;12.30;10.10;;;;;;;14.79;54.79;100092.88;110099;1259;21978;-75
2022/09/30 14:11:47;;;;;;;16.10;12.10;;;;;;;14.83;54.82;100096.71;109920;1260;23771;-76
2022/09/30 14:15:01;;;;;;;13.90;11.20;;;;;;;14.92;54.93;100099.34;109236;1264;24386;-75
2022/09/30 14:18:23;;;;;;;14.80;11.10;;;;;;;15.01;55.01;100097.70;110233;1258;21979;-74
2022/09/30 14:21:37;;;;;;;12.30;9.90;;;;;;;15.07;54.70;100093.14;110180;1258;21993;-75
2022/09/30 14:24:22;;;;;;;9.60;8.60;;;;;;;15.10;54.20;100100.88;109199;1264;21992;-75
2022/09/30 14:27:42;;;;;;;10.90;9.40;;;;;;;15.04;54.01;100105.10;109185;1264;22456;-75
2022/09/30 14:30:27;;;;;;;11.10;10.00;;;;;;;15.00;53.96;100107.95;109389;1263;21992;-74
2022/09/30 14:33:24;;;;;;;9.30;8.40;;;;;;;14.97;54.02;100114.05;109220;1264;22086;-75
2022/09/30 14:36:21;;;;;;;11.70;9.00;;;;;;;14.91;54.10;100121.29;109331;1263;23069;-74
2022/09/30 14:39:00;;;;;;;9.50;8.50;;;;;;;14.86;53.82;100118.91;109525;1263;23827;-74
2022/09/30 14:42:06;;;;;;;11.00;8.80;;;;;;;14.80;53.62;100119.10;109635;1258;23601;-74
2022/09/30 14:44:50;;;;;;;12.20;8.50;;;;;;;14.80;53.86;100117.14;109730;1256;23680;-74
2022/09/30 14:47:51;;;;;;;9.30;8.30;;;;;;;14.89;53.80;100118.91;110354;1256;22024;-76
2022/09/30 14:51:00;;;;;;;11.50;8.10;;;;;;;14.95;53.24;100121.23;110098;1256;22371;-75
2022/09/30 14:53:56;;;;;;;8.70;7.00;;;;;;;14.94;52.83;100121.62;110502;1252;21968;-74
2022/09/30 14:56:45;;;;;;;;;;;;;;;;;;;;;
2022/09/30 14:59:35;;;;;;;8.70;7.20;;;;;;;14.83;52.26;100122.12;110609;1253;23755;-75
2022/09/30 15:02:19;;;;;;;7.30;6.50;;;;;;;14.81;51.95;100115.22;110581;1253;23672;-74
2022/09/30 15:04:58;;;;;;;9.20;6.30;;;;;;;14.79;52.04;100112.52;110514;1253;21973;-75
2022/09/30 15:07:43;;;;;;;;;;;;;;;;;;;;;
2022/09/30 15:10:29;;;;;;;5.50;5.00;;;;;;;14.79;51.63;100120.05;110542;1252;23149;-75
2022/09/30 15:13:09;;;;;;;5.90;5.30;;;;;;;14.70;50.77;100120.42;110055;1256;23672;-75
2022/09/30 15:15:50;;;;;;;6.10;5.30;;;;;;;14.61;50.56;100121.28;109945;1257;23804;-73
2022/09/30 15:18:41;;;;;;;;;;;;;;;14.56;50.73;100121.55;110252;1256;21956;-75
2022/09/30 15:21:17;;;;;;;8.70;6.20;;;;;;;14.45;50.86;100123.41;110042;1257;21987;-75
2022/09/30 15:24:00;;;;;;;9.70;6.80;;;;;;;14.42;51.03;100122.14;110177;1256;23619;-75
2022/09/30 15:26:35;;;;;;;10.30;7.20;;;;;;;14.42;51.37;100122.85;109999;1257;22040;-75
2022/09/30 15:29:19;;;;;;;9.70;7.70;;;;;;;14.41;51.70;100122.38;110014;1257;24285;-75
2022/09/30 15:32:23;;;;;;;10.60;8.20;;;;;;;14.37;51.83;100123.48;109870;1258;21978;-74
2022/09/30 15:35:11;;;;;;;8.10;6.70;;;;;;;14.20;52.02;100125.84;109989;1258;21972;-74
2022/09/30 15:37:49;;;;;;;8.20;6.60;;;;;;;14.10;52.31;100127.64;109725;1258;22015;-75
2022/09/30 15:40:45;;;;;;;8.00;5.60;;;;;;;14.03;52.44;100128.55;109979;1258;23681;-75
2022/09/30 15:43:52;;;;;;;9.10;6.50;;;;;;;13.94;52.51;100132.90;109837;1258;21970;-74
2022/09/30 15:46:36;;;;;;;8.70;6.90;;;;;;;13.83;52.65;100142.42;110030;1258;23793;-74
2022/09/30 15:49:40;;;;;;;13.90;10.10;;;;;;;13.78;52.82;100145.86;110055;1258;22279;-75
2022/09/30 15:52:40;;;;;;;10.20;8.00;;;;;;;13.73;53.18;100153.13;110508;1253;21978;-76
2022/09/30 15:56:14;;;;;;;12.00;8.50;;;;;;;13.72;53.49;100160.54;110355;1253;23412;-74
2022/09/30 15:58:58;;;;;;;12.80;9.20;;;;;;;13.70;53.89;100163.09;110572;1252;22007;-74
2022/09/30 16:01:52;;;;;;;12.60;8.80;;;;;;;13.72;54.24;100165.58;110577;1253;23681;-74
2022/09/30 16:04:27;;;;;;;12.40;10.40;;;;;;;13.72;54.54;100168.90;110585;1252;21975;-74
2022/09/30 16:07:06;;;;;;;;;;;;;;;13.74;54.73;100173.88;110502;1252;22028;-75
2022/09/30 16:09:40;;;;;;;19.10;15.60;;;;;;;13.64;55.11;100171.08;110335;1252;23838;-75
2022/09/30 16:12:17;;;;;;;16.30;12.90;;;;;;;13.61;55.30;100170.38;110357;1253;21963;-74
2022/09/30 16:15:13;;;;;;;42.00;31.50;;;;;;;13.56;55.49;100168.73;110670;1252;21966;-73
2022/09/30 16:17:48;;;;;;;37.90;28.60;;;;;;;13.46;55.80;100172.89;110533;1253;21987;-75
2022/09/30 16:20:28;;;;;;;104.70;65.60;;;;;;;13.40;56.10;100169.88;110228;1255;23087;-75
2022/09/30 16:23:03;;;;;;;93.50;54.60;;;;;;;13.35;56.31;100173.47;110321;1252;23052;-74
2022/09/30 16:25:43;;;;;;;53.90;31.90;;;;;;;13.31;56.71;100175.08;110553;1252;21978;-74
2022/09/30 16:28:14;;;;;;;36.10;23.40;;;;;;;13.26;56.91;100175.64;110551;1252;22196;-75
2022/09/30 16:30:55;;;;;;;27.40;19.00;;;;;;;13.20;57.04;100182.09;110056;1258;22459;-74
2022/09/30 16:33:41;;;;;;;22.10;16.90;;;;;;;13.13;57.36;100186.27;110229;1256;23802;-75
2022/09/30 16:36:19;;;;;;;25.70;17.80;;;;;;;13.09;57.78;100193.14;109886;1256;23720;-76
2022/09/30 16:38:56;;;;;;;25.70;19.20;;;;;;;13.03;57.96;100190.14;109916;1256;22908;-75
2022/09/30 16:41:36;;;;;;;34.30;23.40;;;;;;;12.97;58.12;100185.19;110220;1256;22560;-73
2022/09/30 16:44:18;;;;;;;32.70;22.30;;;;;;;12.91;58.48;100194.55;110302;1256;21965;-75
2022/09/30 16:46:55;;;;;;;31.70;23.80;;;;;;;12.87;58.72;100202.09;110205;1256;21971;-76
2022/09/30 16:49:41;;;;;;;32.70;22.00;;;;;;;12.82;58.93;100196.53;110574;1253;21990;-74
2022/09/30 16:52:13;;;;;;;25.80;20.50;;;;;;;12.81;59.16;100180.20;110538;1253;22821;-74
2022/09/30 16:54:50;;;;;;;32.80;25.10;;;;;;;12.81;59.41;100167.79;110516;1252;22293;-75
2022/09/30 16:57:23;;;;;;;47.40;36.00;;;;;;;12.76;59.48;100162.66;110503;1253;22033;-75
2022/09/30 16:59:57;;;;;;;44.40;35.80;;;;;;;12.68;59.76;100165.12;110519;1252;21977;-76
2022/09/30 17:02:32;;;;;;;39.50;34.00;;;;;;;12.64;60.05;100169.34;110626;1252;22530;-75
2022/09/30 17:05:21;;;;;;;44.80;32.80;;;;;;;12.60;60.22;100177.92;110513;1253;23020;-76
2022/09/30 17:08:00;;;;;;;40.20;32.00;;;;;;;12.55;60.35;100182.20;110513;1253;21943;-75
2022/09/30 17:10:34;;;;;;;36.20;31.20;;;;;;;12.49;60.62;100186.48;110527;1253;23711;-75
2022/09/30 17:13:07;;;;;;;43.30;33.80;;;;;;;12.45;60.89;100191.89;110504;1253;21972;-75
2022/09/30 17:15:48;;;;;;;38.10;30.70;;;;;;;12.40;60.91;100197.38;109962;1258;25008;-76
2022/09/30 17:18:18;;;;;;;35.90;29.40;;;;;;;12.36;61.15;100201.43;109714;1259;21986;-76
2022/09/30 17:20:52;;;;;;;34.40;28.40;;;;;;;12.32;61.26;100213.66;109625;1258;22982;-75
2022/09/30 17:23:24;;;;;;;32.20;28.70;;;;;;;12.26;61.32;100214.29;109844;1257;21972;-76
2022/09/30 17:25:59;;;;;;;39.20;35.00;;;;;;;12.21;61.60;100217.64;110016;1257;21985;-78
2022/09/30 17:28:28;;;;;;;40.70;36.30;;;;;;;12.16;61.66;100220.49;109937;1258;23062;-76
2022/09/30 17:30:57;;;;;;;44.50;36.80;;;;;;;12.10;61.61;100221.82;110174;1257;22772;-75